createdAt,value
2019-03-23T00:00:05.747Z,19.70
2019-03-23T00:02:34.190Z,18.90
2019-03-23T00:05:02.600Z,18.70
2019-03-23T00:07:31.054Z,19.07
2019-03-23T00:10:02.427Z,19.67
2019-03-23T00:12:32.211Z,19.20
2019-03-23T00:15:02.200Z,22.30
2019-03-23T00:17:31.633Z,21.27
2019-03-23T00:20:02.116Z,22.22
2019-03-23T00:22:33.840Z,22.62
2019-03-23T00:25:05.076Z,22.37
2019-03-23T00:27:36.541Z,21.37
2019-03-23T00:30:06.535Z,20.55
2019-03-23T00:32:34.978Z,19.10
2019-03-23T00:35:03.903Z,17.90
2019-03-23T00:37:32.697Z,14.93
2019-03-23T00:40:01.815Z,15.78
2019-03-23T00:42:31.259Z,13.72
2019-03-23T00:45:00.645Z,12.58
2019-03-23T00:47:29.140Z,13.03
2019-03-23T00:49:57.567Z,13.95
2019-03-23T00:52:27.304Z,12.68
2019-03-23T00:54:55.720Z,12.75
2019-03-23T00:57:24.163Z,11.00
2019-03-23T00:59:52.615Z,12.60
2019-03-23T01:02:22.345Z,12.18
2019-03-23T01:04:51.888Z,11.45
2019-03-23T01:07:22.692Z,11.83
2019-03-23T01:12:23.017Z,11.57
2019-03-23T01:14:51.463Z,13.18
2019-03-23T01:17:19.908Z,27.73
2019-03-23T01:19:48.326Z,23.65
2019-03-23T01:22:16.768Z,21.23
2019-03-23T01:24:45.187Z,15.10
2019-03-23T01:27:13.629Z,13.88
2019-03-23T01:29:43.611Z,12.20
2019-03-23T01:34:40.559Z,9.23
2019-03-23T01:37:19.787Z,10.30
2019-03-23T01:39:48.229Z,10.38
2019-03-23T01:42:16.671Z,10.15
2019-03-23T01:44:45.111Z,10.70
2019-03-23T01:47:14.468Z,9.60
2019-03-23T01:49:42.908Z,9.28
2019-03-23T01:52:11.335Z,9.10
2019-03-23T01:54:39.766Z,10.35
2019-03-23T01:57:08.184Z,10.63
2019-03-23T01:59:36.631Z,8.58
2019-03-23T02:02:05.091Z,9.30
2019-03-23T02:04:33.512Z,8.68
2019-03-23T02:07:01.940Z,8.10
2019-03-23T02:09:30.368Z,9.53
2019-03-23T02:11:58.803Z,8.38
2019-03-23T02:14:27.217Z,8.13
2019-03-23T02:16:55.652Z,8.95
2019-03-23T02:19:24.092Z,7.87
2019-03-23T02:21:52.508Z,10.85
2019-03-23T02:24:20.939Z,9.70
2019-03-23T02:26:49.364Z,8.18
2019-03-23T02:29:17.799Z,8.05
2019-03-23T02:31:46.209Z,8.70
2019-03-23T02:34:14.653Z,7.75
2019-03-23T02:36:43.091Z,9.20
2019-03-23T02:39:11.520Z,8.40
2019-03-23T02:41:39.965Z,8.85
2019-03-23T02:44:08.389Z,9.18
2019-03-23T02:46:36.816Z,9.58
2019-03-23T02:49:05.235Z,8.78
2019-03-23T02:51:33.678Z,10.35
2019-03-23T02:54:02.090Z,8.50
2019-03-23T02:56:30.519Z,7.28
2019-03-23T02:58:58.940Z,8.03
2019-03-23T03:01:27.379Z,8.18
2019-03-23T03:03:57.396Z,8.38
2019-03-23T03:06:25.809Z,8.75
2019-03-23T03:08:56.070Z,8.50
2019-03-23T03:11:24.559Z,7.95
2019-03-23T03:13:53.014Z,7.17
2019-03-23T03:16:21.427Z,7.80
2019-03-23T03:18:49.860Z,8.73
2019-03-23T03:21:18.289Z,6.08
2019-03-23T03:23:46.736Z,6.15
2019-03-23T03:26:15.175Z,6.45
2019-03-23T03:28:43.670Z,7.37
2019-03-23T03:31:13.230Z,6.42
2019-03-23T03:33:41.642Z,6.10
2019-03-23T03:36:10.085Z,5.55
2019-03-23T03:38:38.505Z,5.40
2019-03-23T03:41:06.962Z,5.87
2019-03-23T03:43:35.374Z,5.97
2019-03-23T03:46:03.827Z,6.33
2019-03-23T03:48:32.212Z,5.42
2019-03-23T03:51:00.643Z,5.62
2019-03-23T03:53:29.080Z,5.90
2019-03-23T03:55:57.494Z,6.67
2019-03-23T03:58:25.924Z,6.58
2019-03-23T04:00:54.336Z,6.85
2019-03-23T04:03:22.780Z,7.80
2019-03-23T04:05:51.201Z,6.05
2019-03-23T04:08:19.634Z,6.40
2019-03-23T04:10:48.072Z,5.45
2019-03-23T04:13:16.497Z,4.72
2019-03-23T04:15:44.951Z,5.25
2019-03-23T04:18:13.369Z,4.62
2019-03-23T04:20:42.912Z,5.05
2019-03-23T04:23:11.342Z,4.20
2019-03-23T04:25:39.780Z,5.37
2019-03-23T04:28:08.229Z,5.15
2019-03-23T04:30:36.642Z,4.35
2019-03-23T04:33:05.072Z,4.55
2019-03-23T04:35:33.491Z,5.12
2019-03-23T04:38:01.934Z,4.67
2019-03-23T04:40:30.354Z,4.90
2019-03-23T04:42:58.788Z,4.83
2019-03-23T04:45:27.223Z,5.03
2019-03-23T04:47:55.663Z,4.95
2019-03-23T04:50:26.869Z,5.22
2019-03-23T04:53:14.645Z,4.70
2019-03-23T04:55:43.083Z,4.90
2019-03-23T04:58:11.495Z,5.33
2019-03-23T05:00:39.942Z,5.00
2019-03-23T05:03:08.377Z,4.37
2019-03-23T05:05:36.799Z,4.12
2019-03-23T05:08:05.239Z,4.45
2019-03-23T05:10:33.665Z,4.90
2019-03-23T05:13:02.109Z,3.72
2019-03-23T05:15:30.535Z,3.62
2019-03-23T05:18:00.041Z,3.90
2019-03-23T05:20:31.964Z,3.80
2019-03-23T05:23:01.929Z,3.87
2019-03-23T05:25:30.369Z,4.17
2019-03-23T05:27:58.800Z,4.35
2019-03-23T05:30:27.254Z,5.03
2019-03-23T05:32:55.700Z,4.25
2019-03-23T05:35:24.943Z,3.72
2019-03-23T05:37:56.015Z,4.20
2019-03-23T05:40:24.469Z,3.80
2019-03-23T05:42:53.193Z,4.03
2019-03-23T05:45:24.177Z,3.90
2019-03-23T05:47:53.755Z,4.00
2019-03-23T05:50:24.592Z,4.28
2019-03-23T05:55:20.755Z,3.62
2019-03-23T05:57:50.681Z,3.98
2019-03-23T06:00:19.931Z,4.10
2019-03-23T06:02:49.173Z,3.85
2019-03-23T06:05:17.589Z,3.83
2019-03-23T06:07:47.781Z,4.60
2019-03-23T06:10:16.211Z,3.90
2019-03-23T06:12:44.653Z,4.28
2019-03-23T06:15:13.707Z,4.05
2019-03-23T06:17:42.194Z,4.45
2019-03-23T06:20:11.710Z,3.25
2019-03-23T06:22:40.156Z,5.20
2019-03-23T06:25:08.903Z,3.72
2019-03-23T06:27:41.524Z,4.37
2019-03-23T06:30:11.257Z,4.05
2019-03-23T06:32:39.665Z,3.77
2019-03-23T06:35:08.095Z,4.75
2019-03-23T06:37:37.626Z,4.17
2019-03-23T06:40:11.784Z,4.20
2019-03-23T06:42:40.163Z,3.27
2019-03-23T06:45:10.045Z,3.40
2019-03-23T06:47:38.491Z,2.72
2019-03-23T06:50:08.008Z,3.25
2019-03-23T06:52:41.635Z,2.80
2019-03-23T06:55:10.072Z,2.50
2019-03-23T06:57:40.381Z,2.92
2019-03-23T07:00:10.363Z,2.70
2019-03-23T07:02:38.779Z,3.67
2019-03-23T07:05:08.142Z,3.05
2019-03-23T07:07:40.828Z,2.80
2019-03-23T07:10:11.032Z,2.92
2019-03-23T07:12:40.747Z,2.47
2019-03-23T07:15:19.878Z,2.47
2019-03-23T07:17:47.363Z,2.47
2019-03-23T07:20:34.083Z,2.62
2019-03-23T07:23:02.517Z,1.98
2019-03-23T07:25:30.951Z,2.65
2019-03-23T07:28:02.859Z,2.92
2019-03-23T07:30:33.545Z,2.60
2019-03-23T07:33:04.352Z,2.30
2019-03-23T07:35:44.593Z,2.65
2019-03-23T07:38:04.403Z,2.05
2019-03-23T07:40:36.556Z,2.20
2019-03-23T07:45:50.116Z,3.10
2019-03-23T07:48:18.555Z,3.10
2019-03-23T07:50:46.971Z,2.65
2019-03-23T07:53:15.414Z,3.00
2019-03-23T07:55:43.831Z,3.55
2019-03-23T07:58:12.259Z,3.58
2019-03-23T08:00:41.094Z,3.55
2019-03-23T08:03:09.815Z,2.87
2019-03-23T08:05:38.227Z,3.22
2019-03-23T08:08:06.668Z,3.25
2019-03-23T08:10:35.056Z,2.72
2019-03-23T08:13:03.426Z,3.30
2019-03-23T08:15:31.839Z,3.80
2019-03-23T08:18:00.256Z,4.20
2019-03-23T08:20:28.725Z,3.60
2019-03-23T08:22:57.153Z,3.92
2019-03-23T08:25:25.552Z,3.87
2019-03-23T08:27:53.969Z,3.25
2019-03-23T08:30:22.376Z,3.60
2019-03-23T08:32:50.820Z,3.87
2019-03-23T08:35:19.219Z,3.55
2019-03-23T08:37:47.636Z,4.72
2019-03-23T08:40:16.079Z,3.67
2019-03-23T08:42:44.508Z,3.52
2019-03-23T08:45:15.426Z,3.95
2019-03-23T08:50:11.567Z,4.12
2019-03-23T08:52:40.001Z,3.85
2019-03-23T08:55:08.416Z,4.65
2019-03-23T08:57:36.854Z,4.75
2019-03-23T09:00:05.741Z,3.60
2019-03-23T09:02:34.183Z,3.35
2019-03-23T09:05:02.615Z,3.25
2019-03-23T09:07:31.023Z,2.92
2019-03-23T09:09:59.668Z,3.25
2019-03-23T09:12:28.085Z,3.12
2019-03-23T09:14:56.517Z,2.70
2019-03-23T09:17:24.927Z,2.80
2019-03-23T09:19:53.357Z,2.62
2019-03-23T09:22:21.772Z,4.65
2019-03-23T09:24:50.210Z,5.00
2019-03-23T09:27:18.627Z,3.62
2019-03-23T09:29:47.061Z,3.55
2019-03-23T09:32:15.514Z,3.77
2019-03-23T09:34:43.925Z,4.55
2019-03-23T09:37:12.360Z,3.15
2019-03-23T09:39:40.775Z,3.15
2019-03-23T09:42:09.216Z,2.87
2019-03-23T09:44:37.624Z,3.37
2019-03-23T09:47:06.036Z,2.77
2019-03-23T09:49:34.550Z,3.58
2019-03-23T09:52:02.939Z,4.60
2019-03-23T09:54:31.375Z,3.98
2019-03-23T09:56:59.787Z,4.25
2019-03-23T09:59:28.219Z,3.62
2019-03-23T10:01:56.655Z,3.75
2019-03-23T10:04:25.067Z,2.83
2019-03-23T10:06:53.503Z,2.30
2019-03-23T10:09:21.919Z,3.35
2019-03-23T10:11:50.354Z,4.33
2019-03-23T10:14:18.763Z,3.50
2019-03-23T10:16:47.196Z,3.98
2019-03-23T10:19:15.635Z,3.72
2019-03-23T10:21:44.040Z,3.40
2019-03-23T10:24:12.468Z,3.27
2019-03-23T10:26:40.878Z,5.25
2019-03-23T10:29:09.321Z,3.72
2019-03-23T10:31:37.733Z,4.62
2019-03-23T10:34:06.144Z,4.12
2019-03-23T10:36:34.576Z,4.33
2019-03-23T10:39:02.994Z,4.40
2019-03-23T10:41:31.452Z,4.33
2019-03-23T10:43:59.834Z,5.17
2019-03-23T10:46:28.268Z,4.72
2019-03-23T10:48:56.684Z,3.65
2019-03-23T10:51:25.117Z,3.77
2019-03-23T10:53:54.734Z,3.42
2019-03-23T10:56:23.143Z,4.10
2019-03-23T10:58:51.575Z,4.70
2019-03-23T11:01:19.967Z,4.35
2019-03-23T11:03:48.402Z,4.28
2019-03-23T11:06:36.172Z,6.03
2019-03-23T11:09:05.971Z,5.42
2019-03-23T11:11:34.335Z,5.42
2019-03-23T11:14:02.719Z,5.37
2019-03-23T11:16:31.119Z,5.12
2019-03-23T11:18:59.531Z,5.20
2019-03-23T11:21:27.963Z,5.90
2019-03-23T11:23:56.378Z,5.42
2019-03-23T11:26:24.824Z,6.47
2019-03-23T11:28:53.242Z,6.95
2019-03-23T11:31:21.680Z,6.80
2019-03-23T11:33:50.091Z,6.75
2019-03-23T11:36:18.488Z,6.12
2019-03-23T11:38:46.895Z,6.85
2019-03-23T11:41:15.256Z,7.35
2019-03-23T11:43:43.645Z,8.10
2019-03-23T11:46:12.003Z,7.20
2019-03-23T11:48:40.388Z,7.00
2019-03-23T11:51:08.767Z,7.37
2019-03-23T11:53:37.153Z,7.03
2019-03-23T11:56:05.530Z,8.00
2019-03-23T11:58:33.901Z,7.65
2019-03-23T12:01:02.295Z,7.80
2019-03-23T12:03:30.654Z,8.38
2019-03-23T12:05:59.296Z,8.78
2019-03-23T12:08:27.712Z,10.95
2019-03-23T12:11:02.793Z,11.35
2019-03-23T12:13:29.476Z,12.77
2019-03-23T12:15:57.839Z,12.43
2019-03-23T12:18:26.282Z,12.35
2019-03-23T12:20:54.648Z,12.88
2019-03-23T12:23:23.078Z,13.55
2019-03-23T12:25:51.461Z,12.75
2019-03-23T12:28:39.226Z,14.30
2019-03-23T12:31:08.481Z,13.72
2019-03-23T12:33:56.236Z,14.35
2019-03-23T12:36:24.615Z,15.03
2019-03-23T12:38:53.102Z,14.53
2019-03-23T12:41:23.221Z,15.32
2019-03-23T12:43:51.503Z,15.03
2019-03-23T12:46:21.886Z,16.77
2019-03-23T12:48:50.299Z,17.12
2019-03-23T12:51:18.742Z,16.65
2019-03-23T12:53:47.152Z,15.43
2019-03-23T12:56:15.555Z,16.27
2019-03-23T12:58:43.991Z,16.40
2019-03-23T13:01:12.386Z,15.60
2019-03-23T13:03:40.815Z,15.08
2019-03-23T13:06:09.203Z,14.95
2019-03-23T13:08:37.599Z,15.53
2019-03-23T13:11:06.160Z,13.20
2019-03-23T13:13:53.908Z,14.23
2019-03-23T13:16:22.296Z,13.98
2019-03-23T13:18:50.680Z,15.32
2019-03-23T13:21:19.065Z,14.55
2019-03-23T13:23:47.431Z,14.10
2019-03-23T13:26:15.815Z,13.60
2019-03-23T13:28:44.171Z,13.32
2019-03-23T13:31:12.564Z,14.78
2019-03-23T13:33:40.943Z,16.45
2019-03-23T13:36:09.310Z,15.55
2019-03-23T13:38:37.697Z,14.73
2019-03-23T13:41:06.121Z,14.07
2019-03-23T13:43:34.524Z,13.98
2019-03-23T13:46:02.945Z,14.83
2019-03-23T13:48:31.384Z,15.05
2019-03-23T13:50:59.793Z,13.58
2019-03-23T13:53:28.230Z,14.10
2019-03-23T13:55:56.640Z,14.53
2019-03-23T13:58:25.036Z,14.38
2019-03-23T14:00:53.474Z,14.90
2019-03-23T14:03:21.875Z,15.80
2019-03-23T14:05:50.264Z,15.78
2019-03-23T14:08:18.636Z,15.78
2019-03-23T14:10:47.048Z,14.75
2019-03-23T14:13:15.399Z,14.85
2019-03-23T14:15:43.806Z,15.25
2019-03-23T14:18:12.190Z,14.93
2019-03-23T14:20:40.552Z,15.05
2019-03-23T14:23:08.940Z,16.02
2019-03-23T14:25:37.307Z,16.55
2019-03-23T14:28:05.701Z,16.25
2019-03-23T14:30:34.059Z,16.07
2019-03-23T14:33:02.443Z,14.63
2019-03-23T14:35:30.868Z,14.07
2019-03-23T14:37:59.192Z,14.10
2019-03-23T14:40:27.584Z,15.00
2019-03-23T14:42:55.947Z,15.05
2019-03-23T14:45:24.334Z,14.73
2019-03-23T14:47:52.699Z,13.68
2019-03-23T14:50:21.093Z,14.43
2019-03-23T14:52:49.470Z,13.90
2019-03-23T14:55:17.862Z,14.85
2019-03-23T14:57:46.250Z,13.30
2019-03-23T15:00:16.184Z,13.30
2019-03-23T15:02:45.641Z,12.68
2019-03-23T15:05:14.039Z,14.13
2019-03-23T15:07:42.423Z,13.72
2019-03-23T15:10:10.798Z,13.62
2019-03-23T15:12:39.227Z,12.55
2019-03-23T15:15:08.267Z,14.60
2019-03-23T15:17:36.680Z,13.55
2019-03-23T15:20:05.619Z,14.20
2019-03-23T15:22:34.047Z,13.55
2019-03-23T15:25:02.479Z,13.32
2019-03-23T15:27:30.866Z,13.90
2019-03-23T15:29:59.253Z,13.85
2019-03-23T15:32:27.693Z,15.10
2019-03-23T15:34:56.111Z,14.73
2019-03-23T15:37:25.751Z,15.78
2019-03-23T15:39:54.163Z,14.68
2019-03-23T15:42:24.962Z,16.80
2019-03-23T15:44:52.663Z,16.42
2019-03-23T15:47:21.103Z,16.55
2019-03-23T15:49:49.543Z,17.35
2019-03-23T15:52:17.954Z,18.25
2019-03-23T15:54:46.363Z,17.17
2019-03-23T15:57:14.772Z,16.70
2019-03-23T15:59:43.208Z,16.48
2019-03-23T16:02:11.587Z,18.73
2019-03-23T16:04:41.079Z,18.00
2019-03-23T16:07:11.056Z,20.40
2019-03-23T16:09:42.456Z,18.77
2019-03-23T16:12:10.835Z,19.62
2019-03-23T16:14:39.199Z,20.12
2019-03-23T16:17:07.584Z,19.07
2019-03-23T16:19:35.943Z,21.10
2019-03-23T16:22:04.299Z,19.75
2019-03-23T16:24:32.692Z,18.23
2019-03-23T16:27:01.053Z,21.37
2019-03-23T16:29:29.435Z,19.65
2019-03-23T16:31:57.851Z,18.90
2019-03-23T16:34:26.288Z,39.73
2019-03-23T16:36:56.374Z,91.95
2019-03-23T16:39:24.803Z,28.73
2019-03-23T16:41:53.225Z,23.67
2019-03-23T16:44:21.643Z,21.90
2019-03-23T16:46:50.075Z,29.82
2019-03-23T16:49:18.504Z,24.15
2019-03-23T16:51:46.934Z,22.37
2019-03-23T16:54:15.356Z,21.05
2019-03-23T16:56:45.706Z,22.62
2019-03-23T16:59:15.429Z,22.70
2019-03-23T17:01:50.897Z,24.63
2019-03-23T17:04:19.555Z,22.13
2019-03-23T17:06:47.996Z,24.23
2019-03-23T17:09:16.416Z,22.22
2019-03-23T17:11:44.847Z,24.32
2019-03-23T17:14:13.291Z,28.92
2019-03-23T17:16:41.704Z,26.52
2019-03-23T17:19:10.139Z,24.70
2019-03-23T17:21:38.557Z,24.72
2019-03-23T17:24:06.999Z,24.47
2019-03-23T17:26:35.425Z,25.15
2019-03-23T17:29:06.131Z,23.77
2019-03-23T17:31:38.305Z,24.40
2019-03-23T17:34:06.735Z,25.00
2019-03-23T17:36:35.172Z,26.85
2019-03-23T17:39:05.331Z,25.77
2019-03-23T17:41:33.779Z,25.17
2019-03-23T17:44:21.562Z,32.30
2019-03-23T17:46:52.235Z,28.52
2019-03-23T17:49:20.651Z,28.32
2019-03-23T17:51:49.094Z,35.58
2019-03-23T17:54:17.512Z,33.60
2019-03-23T17:56:46.614Z,36.68
2019-03-23T17:59:16.259Z,27.75
2019-03-23T18:01:44.882Z,33.95
2019-03-23T18:04:13.315Z,26.77
2019-03-23T18:06:41.699Z,22.82
2019-03-23T18:09:10.118Z,34.83
2019-03-23T18:11:38.479Z,46.25
2019-03-23T18:14:06.880Z,34.70
2019-03-23T18:16:35.259Z,25.72
2019-03-23T18:19:03.686Z,24.55
2019-03-23T18:21:32.032Z,23.52
2019-03-23T18:24:00.427Z,22.67
2019-03-23T18:26:28.820Z,24.30
2019-03-23T18:28:57.188Z,24.25
2019-03-23T18:31:25.583Z,22.90
2019-03-23T18:33:53.935Z,23.10
2019-03-23T18:36:22.324Z,21.73
2019-03-23T18:38:50.691Z,21.62
2019-03-23T18:41:19.087Z,23.20
2019-03-23T18:43:47.473Z,23.45
2019-03-23T18:46:15.842Z,22.10
2019-03-23T18:48:44.225Z,22.73
2019-03-23T18:51:12.600Z,24.77
2019-03-23T18:53:40.971Z,24.18
2019-03-23T18:56:09.335Z,24.15
2019-03-23T18:58:37.712Z,22.22
2019-03-23T19:01:06.076Z,21.33
2019-03-23T19:03:34.467Z,21.33
2019-03-23T19:06:02.829Z,23.98
2019-03-23T19:08:31.218Z,20.77
2019-03-23T19:10:59.586Z,21.10
2019-03-23T19:13:37.482Z,161.97
2019-03-23T19:15:58.011Z,23.77
2019-03-23T19:18:28.891Z,21.30
2019-03-23T19:23:25.918Z,20.15
2019-03-23T19:26:13.704Z,20.72
2019-03-23T19:28:42.091Z,21.65
2019-03-23T19:31:10.469Z,20.95
2019-03-23T19:33:38.832Z,21.40
2019-03-23T19:36:07.281Z,21.00
2019-03-23T19:38:35.649Z,19.60
2019-03-23T19:41:05.603Z,20.12
2019-03-23T19:43:34.161Z,21.33
2019-03-23T19:46:02.573Z,20.48
2019-03-23T19:48:30.988Z,20.32
2019-03-23T19:50:59.392Z,20.65
2019-03-23T19:53:27.869Z,20.68
2019-03-23T19:55:56.257Z,19.35
2019-03-23T19:58:24.667Z,20.65
2019-03-23T20:01:12.412Z,19.52
2019-03-23T20:03:40.809Z,20.52
2019-03-23T20:06:09.196Z,20.43
2019-03-23T20:08:37.630Z,20.45
2019-03-23T20:11:06.073Z,20.60
2019-03-23T20:13:34.456Z,19.52
2019-03-23T20:16:02.871Z,18.80
2019-03-23T20:18:31.262Z,18.42
2019-03-23T20:20:59.705Z,20.08
2019-03-23T20:23:28.101Z,19.60
2019-03-23T20:25:56.495Z,20.55
2019-03-23T20:28:24.895Z,21.05
2019-03-23T20:30:53.321Z,20.52
2019-03-23T20:33:24.448Z,21.05
2019-03-23T20:35:52.903Z,20.40
2019-03-23T20:38:21.297Z,19.05
2019-03-23T20:40:50.659Z,19.30
2019-03-23T20:43:19.575Z,18.40
2019-03-23T20:45:48.495Z,19.37
2019-03-23T20:48:16.906Z,19.00
2019-03-23T20:50:45.294Z,19.12
2019-03-23T20:53:14.107Z,18.12
2019-03-23T20:55:42.463Z,18.55
2019-03-23T20:58:13.342Z,19.30
2019-03-23T21:00:41.192Z,19.30
2019-03-23T21:03:09.596Z,18.40
2019-03-23T21:05:37.964Z,18.20
2019-03-23T21:08:06.400Z,17.80
2019-03-23T21:10:34.799Z,19.05
2019-03-23T21:13:03.177Z,18.60
2019-03-23T21:15:31.540Z,20.37
2019-03-23T21:17:59.943Z,19.82
2019-03-23T21:20:28.359Z,19.07
2019-03-23T21:22:56.801Z,18.60
2019-03-23T21:25:25.227Z,17.60
2019-03-23T21:27:53.750Z,18.92
2019-03-23T21:30:22.166Z,17.62
2019-03-23T21:32:50.587Z,18.73
2019-03-23T21:35:19.027Z,16.93
2019-03-23T21:37:52.187Z,17.55
2019-03-23T21:40:20.605Z,17.52
2019-03-23T21:42:49.028Z,18.82
2019-03-23T21:45:17.455Z,17.92
2019-03-23T21:47:45.849Z,15.90
2019-03-23T21:50:14.221Z,18.02
2019-03-23T21:52:42.606Z,16.95
2019-03-23T21:55:10.998Z,17.00
2019-03-23T21:57:39.398Z,18.00
2019-03-23T22:00:07.788Z,17.10
2019-03-23T22:02:36.257Z,18.20
2019-03-23T22:05:24.081Z,18.98
2019-03-23T22:07:52.511Z,16.82
2019-03-23T22:10:20.942Z,17.57
2019-03-23T22:12:49.383Z,18.52
2019-03-23T22:15:17.833Z,15.88
2019-03-23T22:17:49.031Z,16.67
2019-03-23T22:20:17.435Z,16.70
2019-03-23T22:22:45.795Z,15.83
2019-03-23T22:25:14.212Z,16.62
2019-03-23T22:27:42.614Z,15.05
2019-03-23T22:30:12.168Z,16.57
2019-03-23T22:32:40.625Z,16.05
2019-03-23T22:35:09.064Z,14.30
2019-03-23T22:37:37.507Z,15.70
2019-03-23T22:40:09.699Z,15.53
2019-03-23T22:42:38.166Z,14.25
2019-03-23T22:45:07.400Z,15.05
2019-03-23T22:47:35.845Z,13.58
2019-03-23T22:50:07.107Z,13.15
2019-03-23T22:52:37.342Z,13.80
2019-03-23T22:55:06.371Z,13.10
2019-03-23T22:57:34.788Z,12.70
2019-03-23T23:00:03.242Z,12.93
2019-03-23T23:02:31.643Z,12.20
2019-03-23T23:05:00.063Z,12.65
2019-03-23T23:07:28.498Z,13.32
2019-03-23T23:09:56.918Z,12.70
2019-03-23T23:12:26.392Z,11.93
2019-03-23T23:15:04.021Z,12.05
2019-03-23T23:17:24.910Z,11.50
2019-03-23T23:19:54.271Z,12.28
2019-03-23T23:22:22.688Z,11.43
2019-03-23T23:24:51.135Z,11.70
2019-03-23T23:27:19.574Z,10.65
2019-03-23T23:29:48.028Z,11.18
2019-03-23T23:32:16.448Z,12.23
2019-03-23T23:34:44.872Z,10.30
2019-03-23T23:37:14.579Z,12.65
2019-03-23T23:39:42.945Z,10.00
2019-03-23T23:42:11.394Z,10.72
2019-03-23T23:44:39.820Z,10.88
2019-03-23T23:47:08.755Z,11.55
2019-03-23T23:49:37.180Z,11.25
2019-03-23T23:52:05.593Z,9.63
2019-03-23T23:54:34.048Z,10.58
2019-03-23T23:57:02.474Z,10.23
2019-03-23T23:59:30.918Z,11.18
